D/T METAR WX W/DIR W/SPE G/SPE TEMP DEWP
19/03/19 04:20 EGFF 190420Z AUTO 27005KT 1900 BR BKN001 OVC013 08/08 Q1025 BR W (270°) 5.8mph 8°C 8°C
19/03/19 03:50 EGFF 190350Z AUTO 27004KT 3700 BR OVC001 08/08 Q1025 BR W (270°) 4.6mph 8°C 8°C
19/03/19 02:50 EGFF 190250Z AUTO 26005KT 4000 BR BKN001 OVC010 08/08 Q1025 BR W (260°) 5.8mph 8°C 8°C
19/03/19 02:20 EGFF 190220Z AUTO 25005KT 9000 OVC009 08/07 Q1025 WSW (250°) 5.8mph 8°C 7°C
19/03/19 01:50 EGFF 190150Z AUTO 27005KT 8000 OVC009 08/08 Q1025 W (270°) 5.8mph 8°C 8°C
19/03/19 01:20 EGFF 190120Z AUTO 27006KT 9999 OVC011 08/08 Q1025 W (270°) 6.9mph 8°C 8°C
19/03/19 00:50 EGFF 190050Z AUTO 27005KT 9000 OVC011 08/08 Q1025 W (270°) 5.8mph 8°C 8°C
19/03/19 00:20 EGFF 190020Z AUTO 28005KT 9999 SCT004 OVC009 08/08 Q1025 W (280°) 5.8mph 8°C 8°C
18/03/19 23:50 EGFF 182350Z AUTO 27003KT 9999 OVC004 08/08 Q1025 W (270°) 3.5mph 8°C 8°C
18/03/19 22:50 EGFF 182250Z AUTO 28005KT 9999 BKN003 OVC014 08/08 Q1025 W (280°) 5.8mph 8°C 8°C
18/03/19 22:20 EGFF 182220Z AUTO 28007KT 9999 BKN003 BKN008 OVC035 08/07 Q1024 W (280°) 8.1mph 8°C 7°C
18/03/19 21:50 EGFF 182150Z AUTO 27006KT 9999 OVC034 08/07 Q1024 W (270°) 6.9mph 8°C 7°C
18/03/19 21:20 EGFF 182120Z AUTO 29006KT 9999 FEW015 SCT021 OVC037 07/07 Q1024 WNW (290°) 6.9mph 7°C 7°C
18/03/19 20:50 EGFF 182050Z AUTO 29007KT 9999 FEW004 SCT024 OVC033 07/07 Q1024 WNW (290°) 8.1mph 7°C 7°C
18/03/19 20:20 EGFF 182020Z AUTO 28007KT 9999 BKN030 07/07 Q1024 W (280°) 8.1mph 7°C 7°C
18/03/19 19:50 EGFF 181950Z AUTO 28007KT 9999 FEW046 07/07 Q1024 W (280°) 8.1mph 7°C 7°C
18/03/19 19:20 EGFF 181920Z AUTO 27007KT 9999 BKN005 BKN040 07/07 Q1023 W (270°) 8.1mph 7°C 7°C
18/03/19 18:50 EGFF 181850Z AUTO 27008KT 9999 FEW005 SCT034 OVC040 08/07 Q1023 W (270°) 9.2mph 8°C 7°C
18/03/19 18:20 EGFF 181820Z AUTO 28010KT 9999 BKN005 BKN017 08/07 Q1023 W (280°) 11.5mph 8°C 7°C
18/03/19 17:50 EGFF 181750Z 28009KT 9999 VCSH BKN009 BKN030 08/07 Q1023 VCSH W (280°) 10.4mph 8°C 7°C
18/03/19 17:20 EGFF 181720Z AUTO 29009KT 9999 BKN007 OVC021 08/07 Q1023 WNW (290°) 10.4mph 8°C 7°C
18/03/19 16:50 EGFF 181650Z AUTO 29011KT 9999 BKN006 OVC022 08/07 Q1022 WNW (290°) 12.7mph 8°C 7°C
18/03/19 16:20 EGFF 181620Z AUTO 28015KT 9999 BKN007 OVC017 08/07 Q1022 W (280°) 17.3mph 8°C 7°C
18/03/19 15:50 EGFF 181550Z AUTO 29016KT 9999 BKN009 OVC014 08/07 Q1021 WNW (290°) 18.4mph 8°C 7°C
18/03/19 15:20 EGFF 181520Z AUTO 29015KT 9999 BKN009 OVC026 08/07 Q1022 WNW (290°) 17.3mph 8°C 7°C
18/03/19 14:50 EGFF 181450Z AUTO 28014KT 9999 BKN010 OVC029 08/07 Q1022 W (280°) 16.1mph 8°C 7°C
18/03/19 14:20 EGFF 181420Z AUTO 28013KT 9999 BKN010 OVC017 08/06 Q1022 W (280°) 15.0mph 8°C 6°C
18/03/19 13:50 EGFF 181350Z AUTO 28012KT 9999 BKN008 OVC014 08/06 Q1022 W (280°) 13.8mph 8°C 6°C
18/03/19 13:20 EGFF 181320Z AUTO 27015KT 9999 BKN009 OVC020 08/06 Q1022 W (270°) 17.3mph 8°C 6°C
18/03/19 12:50 EGFF 181250Z 27015KT 9999 BKN009 OVC024 08/06 Q1022 W (270°) 17.3mph 8°C 6°C
18/03/19 12:20 EGFF 181220Z 27014KT 9999 SCT008 BKN027 08/07 Q1022 W (270°) 16.1mph 8°C 7°C
18/03/19 11:50 EGFF 181150Z 28013KT 9999 SCT010 BKN021 08/06 Q1022 RERA W (280°) 15.0mph 8°C 6°C
18/03/19 10:50 EGFF 181050Z 28010KT 9999 SCT013 BKN022 OVC047 08/06 Q1022 W (280°) 11.5mph 8°C 6°C
18/03/19 10:20 EGFF 181020Z AUTO 29010KT 9999 SCT020 BKN041 08/06 Q1022 WNW (290°) 11.5mph 8°C 6°C
18/03/19 09:50 EGFF 180950Z AUTO 30010KT 9999 -RA BKN027 BKN032 OVC045 07/05 Q1022 -RA WNW (300°) 11.5mph 7°C 5°C
18/03/19 09:20 EGFF 180920Z AUTO 31011KT 9999 SCT032 BKN038 BKN048 07/05 Q1022 NW (310°) 12.7mph 7°C 5°C
18/03/19 08:50 EGFF 180850Z AUTO 30009KT 9999 BKN047 07/05 Q1021 WNW (300°) 10.4mph 7°C 5°C
18/03/19 08:20 EGFF 180820Z AUTO 29010KT 9999 NCD 07/05 Q1021 WNW (290°) 11.5mph 7°C 5°C
18/03/19 07:50 EGFF 180750Z AUTO 29008KT 9999 NCD 06/05 Q1021 WNW (290°) 9.2mph 6°C 5°C
18/03/19 07:20 EGFF 180720Z AUTO 30008KT 9999 NCD 06/05 Q1021 WNW (300°) 9.2mph 6°C 5°C
18/03/19 06:50 EGFF 180650Z AUTO 30008KT 9999 NCD 05/04 Q1021 WNW (300°) 9.2mph 5°C 4°C
18/03/19 06:20 EGFF 180620Z AUTO 30010KT 9999 NCD 05/04 Q1020 WNW (300°) 11.5mph 5°C 4°C
18/03/19 05:50 EGFF 180550Z AUTO 30010KT 9999 NCD 05/04 Q1020 WNW (300°) 11.5mph 5°C 4°C
18/03/19 05:20 EGFF 180520Z AUTO 31010KT 9999 NCD 05/04 Q1020 NW (310°) 11.5mph 5°C 4°C
18/03/19 04:50 EGFF 180450Z AUTO 31008KT 9999 NCD 05/04 Q1020 NW (310°) 9.2mph 5°C 4°C
18/03/19 04:20 EGFF 180420Z AUTO 30010KT 9999 NCD 05/04 Q1020 WNW (300°) 11.5mph 5°C 4°C
18/03/19 03:50 EGFF 180350Z AUTO 31007KT 9999 NCD 05/04 Q1019 NW (310°) 8.1mph 5°C 4°C
18/03/19 02:50 EGFF 180250Z AUTO 30009KT 9999 NCD 05/04 Q1019 WNW (300°) 10.4mph 5°C 4°C
18/03/19 02:20 EGFF 180220Z AUTO 31010KT 9999 NCD 05/03 Q1019 NW (310°) 11.5mph 5°C 3°C
18/03/19 01:20 EGFF 180120Z AUTO 32008KT 9999 FEW026 BKN033 04/03 Q1019 NW (320°) 9.2mph 4°C 3°C
18/03/19 00:50 EGFF 180050Z AUTO 31010KT 9999 NCD 05/03 Q1018 NW (310°) 11.5mph 5°C 3°C
17/03/19 23:50 EGFF 172350Z AUTO 32009KT 9999 NCD 05/03 Q1018 NW (320°) 10.4mph 5°C 3°C
17/03/19 23:20 EGFF 172320Z AUTO 31011KT 9999 NCD 05/03 Q1017 NW (310°) 12.7mph 5°C 3°C
17/03/19 22:50 EGFF 172250Z AUTO 30012KT 9999 NCD 05/03 Q1017 WNW (300°) 13.8mph 5°C 3°C
17/03/19 22:20 EGFF 172220Z AUTO 30012KT 9999 NCD 05/04 Q1016 WNW (300°) 13.8mph 5°C 4°C
17/03/19 21:50 EGFF 172150Z AUTO 31014KT 9999 NCD 06/04 Q1016 NW (310°) 16.1mph 6°C 4°C
17/03/19 21:20 EGFF 172120Z AUTO 30011KT 9999 NCD 05/04 Q1015 WNW (300°) 12.7mph 5°C 4°C
17/03/19 20:50 EGFF 172050Z AUTO 31012KT 9999 NCD 05/04 Q1015 NW (310°) 13.8mph 5°C 4°C
17/03/19 20:20 EGFF 172020Z AUTO 31010KT 9999 NCD 05/04 Q1015 NW (310°) 11.5mph 5°C 4°C
17/03/19 19:50 EGFF 171950Z AUTO 31010KT 9999 NCD 05/03 Q1014 NW (310°) 11.5mph 5°C 3°C
17/03/19 19:20 EGFF 171920Z AUTO 30008KT 9999 NCD 05/03 Q1014 WNW (300°) 9.2mph 5°C 3°C
17/03/19 18:50 EGFF 171850Z AUTO 29010KT 9999 NCD 05/04 Q1013 WNW (290°) 11.5mph 5°C 4°C
17/03/19 18:20 EGFF 171820Z AUTO 31012KT 9999 FEW026/// //////TCU 05/03 Q1012 RERA NW (310°) 13.8mph 5°C 3°C
17/03/19 17:20 EGFF 171720Z AUTO 30012KT 9999 FEW027 SCT033 BKN042 08/05 Q1010 RERA WNW (300°) 13.8mph 8°C 5°C
17/03/19 16:50 EGFF 171650Z AUTO 30018KT 260V330 3000 +RA SCT015 SCT021 BKN030 07/05 Q1010 +RA WNW (300°) 20.7mph 7°C 5°C
17/03/19 16:20 EGFF 171620Z AUTO 28016KT 9999 //////TCU 07/05 Q1010 W (280°) 18.4mph 7°C 5°C
17/03/19 15:50 EGFF 171550Z AUTO 29020KT 9999 SCT021/// BKN037/// //////TCU 06/04 Q1010 RERA WNW (290°) 23.0mph 6°C 4°C
17/03/19 15:20 EGFF 171520Z AUTO 27021KT 9999 SCT023/// BKN032/// BKN038/// //////TCU 08/04 Q1009 W (270°) 24.2mph 8°C 4°C
17/03/19 14:50 EGFF 171450Z AUTO 28020G35KT 9999 -RA BKN024/// OVC043/// //////TCU 06/02 Q1009 -RA W (280°) 23.0mph 40.3mph 6°C 2°C
17/03/19 14:20 EGFF 171420Z AUTO 27019G30KT 9999 FEW022/// //////TCU 08/03 Q1009 W (270°) 21.9mph 34.5mph 8°C 3°C
17/03/19 13:50 EGFF 171350Z AUTO 27020G30KT 9999 SCT023 09/04 Q1009 W (270°) 23.0mph 34.5mph 9°C 4°C
17/03/19 13:20 EGFF 171320Z AUTO 27019G30KT 9999 SCT024 BKN028 08/03 Q1008 W (270°) 21.9mph 34.5mph 8°C 3°C
17/03/19 12:50 EGFF 171250Z AUTO 27020KT 9999 SCT026 09/03 Q1008 W (270°) 23.0mph 9°C 3°C
17/03/19 12:20 EGFF 171220Z AUTO 27018KT 9999 SCT024 BKN028 08/03 Q1008 W (270°) 20.7mph 8°C 3°C
17/03/19 11:50 EGFF 171150Z AUTO 28019G29KT 9999 SCT027/// //////TCU 08/02 Q1008 W (280°) 21.9mph 33.4mph 8°C 2°C
17/03/19 11:20 EGFF 171120Z AUTO 28017KT 9999 SCT027 BKN031 BKN040 08/02 Q1007 W (280°) 19.6mph 8°C 2°C
17/03/19 10:50 EGFF 171050Z AUTO 28017G27KT 9999 SCT029 SCT046 08/02 Q1007 W (280°) 19.6mph 31.1mph 8°C 2°C
17/03/19 09:50 EGFF 170950Z AUTO 29017KT 9999 SCT027 BKN031 BKN046 07/02 Q1007 WNW (290°) 19.6mph 7°C 2°C
17/03/19 09:20 EGFF 170920Z AUTO 30018KT 9999 FEW027 06/02 Q1006 WNW (300°) 20.7mph 6°C 2°C
17/03/19 08:50 EGFF 170850Z AUTO 30019KT 9999 NCD 06/02 Q1006 WNW (300°) 21.9mph 6°C 2°C
17/03/19 08:20 EGFF 170820Z 30014KT 9999 FEW021 06/02 Q1005 WNW (300°) 16.1mph 6°C 2°C
17/03/19 07:20 EGFF 170720Z 29013KT 9999 FEW020CB FEW021CB 04/02 Q1004 WNW (290°) 15.0mph 4°C 2°C
17/03/19 06:50 EGFF 170650Z 29014KT 9999 FEW020 04/02 Q1003 WNW (290°) 16.1mph 4°C 2°C
17/03/19 06:20 EGFF 170620Z 29013KT 9999 FEW020TCU 04/02 Q1003 WNW (290°) 15.0mph 4°C 2°C
17/03/19 05:50 EGFF 170550Z 30014KT 9999 FEW020TCU 04/02 Q1003 WNW (300°) 16.1mph 4°C 2°C
17/03/19 05:20 EGFF 170520Z 30010KT 9999 FEW020 04/02 Q1002 WNW (300°) 11.5mph 4°C 2°C
17/03/19 04:50 EGFF 170450Z 30012KT 9999 FEW020TCU 04/02 Q1002 WNW (300°) 13.8mph 4°C 2°C
17/03/19 04:20 EGFF 170420Z 29012KT 9999 FEW020TCU 04/02 Q1001 WNW (290°) 13.8mph 4°C 2°C
17/03/19 03:50 EGFF 170350Z 30011KT 9999 FEW020CB 04/02 Q1001 WNW (300°) 12.7mph 4°C 2°C
17/03/19 02:50 EGFF 170250Z AUTO 29013KT 9999 //////TCU 05/02 Q1001 WNW (290°) 15.0mph 5°C 2°C
17/03/19 02:20 EGFF 170220Z AUTO 29015KT 9999 FEW047/// //////TCU 05/02 Q1000 WNW (290°) 17.3mph 5°C 2°C
17/03/19 01:20 EGFF 170120Z AUTO 30013KT 9999 FEW049/// //////CB 05/03 Q0999 WNW (300°) 15.0mph 5°C 3°C
17/03/19 00:50 EGFF 170050Z AUTO 30014KT 9999 FEW042 06/03 Q0999 WNW (300°) 16.1mph 6°C 3°C
17/03/19 00:20 EGFF 170020Z AUTO 29018KT 9999 FEW022 SCT028 BKN035 06/03 Q0999 WNW (290°) 20.7mph 6°C 3°C
16/03/19 23:50 EGFF 162350Z AUTO 29015KT 9999 FEW022 SCT027 06/04 Q0999 WNW (290°) 17.3mph 6°C 4°C
16/03/19 23:20 EGFF 162320Z AUTO 30014KT 9999 BKN020 BKN027 OVC049 06/03 Q0998 WNW (300°) 16.1mph 6°C 3°C
16/03/19 22:20 EGFF 162220Z AUTO 29013KT 9999 SCT023 SCT030 BKN046 06/04 Q0998 WNW (290°) 15.0mph 6°C 4°C
16/03/19 21:50 EGFF 162150Z AUTO 28017G27KT 9999 NCD 07/04 Q0997 W (280°) 19.6mph 31.1mph 7°C 4°C
16/03/19 21:20 EGFF 162120Z AUTO 28017KT 9999 SCT016/// SCT020/// BKN036/// //////TCU 07/05 Q0997 W (280°) 19.6mph 7°C 5°C
16/03/19 20:50 EGFF 162050Z AUTO 26014KT 9999 BKN006/// BKN033/// OVC039/// //////TCU 07/07 Q0996 W (260°) 16.1mph 7°C 7°C
16/03/19 20:20 EGFF 162020Z AUTO 28012KT 6000 -RA BKN008/// BKN023/// OVC039/// //////TCU 07/06 Q0996 -RA W (280°) 13.8mph 7°C 6°C
16/03/19 19:50 EGFF 161950Z AUTO 28014G24KT 6000 -RA BKN008/// BKN029/// //////TCU 07/06 Q0996 RERA -RA W (280°) 16.1mph 27.6mph 7°C 6°C
16/03/19 19:20 EGFF 161920Z AUTO 26018G31KT 7000 -RA BKN008/// BKN016/// BKN022/// //////TCU 08/07 Q0995 -RA W (260°) 20.7mph 35.7mph 8°C 7°C
16/03/19 18:50 EGFF 161850Z AUTO 26017KT 8000 -RA BKN007 BKN014 08/08 Q0995 -RA W (260°) 19.6mph 8°C 8°C
16/03/19 18:20 EGFF 161820Z AUTO 26017KT 5000 -RA SCT004/// BKN039/// //////CB 08/08 Q0995 RERA -RA W (260°) 19.6mph 8°C 8°C
16/03/19 17:50 EGFF 161750Z AUTO 26019G30KT 4600 RA SCT006/// BKN011/// BKN018/// //////CB 09/08 Q0995 RERA RA W (260°) 21.9mph 34.5mph 9°C 8°C
16/03/19 17:20 EGFF 161720Z AUTO 23017KT 4900 RA SCT024/// OVC037/// //////TCU 10/08 Q0995 RA SW (230°) 19.6mph 10°C 8°C
16/03/19 16:50 EGFF 161650Z AUTO 23015KT 6000 -RA OVC016/// //////CB 10/09 Q0995 -RA SW (230°) 17.3mph 10°C 9°C
16/03/19 16:20 EGFF 161620Z AUTO 22015KT 9999 -RA OVC014/// //////TCU 10/08 Q0996 -RA SW (220°) 17.3mph 10°C 8°C
16/03/19 15:50 EGFF 161550Z AUTO 22015KT 9999 BKN015 OVC021 10/08 Q0996 SW (220°) 17.3mph 10°C 8°C
16/03/19 15:20 EGFF 161520Z AUTO 22016KT 9999 BKN015 OVC019 10/08 Q0997 SW (220°) 18.4mph 10°C 8°C
16/03/19 14:50 EGFF 161450Z AUTO 22016KT 9999 BKN015 OVC021 10/08 Q0998 SW (220°) 18.4mph 10°C 8°C
16/03/19 14:20 EGFF 161420Z AUTO 23015KT 9999 -RA BKN018 OVC025 10/08 Q0998 -RA SW (230°) 17.3mph 10°C 8°C
16/03/19 13:50 EGFF 161350Z AUTO 24018G30KT 9999 OVC022 11/08 Q0998 WSW (240°) 20.7mph 34.5mph 11°C 8°C
16/03/19 13:20 EGFF 161320Z AUTO 24020KT 9999 OVC025 11/07 Q0999 WSW (240°) 23.0mph 11°C 7°C
16/03/19 12:20 EGFF 161220Z AUTO 24021G32KT 9999 OVC025 11/07 Q1000 WSW (240°) 24.2mph 36.8mph 11°C 7°C
16/03/19 11:50 EGFF 161150Z AUTO 24024G37KT 9999 OVC026 11/07 Q1000 WSW (240°) 27.6mph 42.6mph 11°C 7°C
16/03/19 11:20 EGFF 161120Z AUTO 24024G35KT 9999 BKN029 12/07 Q1001 WSW (240°) 27.6mph 40.3mph 12°C 7°C
16/03/19 10:50 EGFF 161050Z AUTO 25025G35KT 9999 SCT026 OVC031 11/07 Q1001 WSW (250°) 28.8mph 40.3mph 11°C 7°C
16/03/19 10:20 EGFF 161020Z AUTO 25024G36KT 9999 OVC026 11/07 Q1002 WSW (250°) 27.6mph 41.4mph 11°C 7°C
16/03/19 09:50 EGFF 160950Z AUTO 25022G32KT 9999 BKN025 OVC034 11/07 Q1002 WSW (250°) 25.3mph 36.8mph 11°C 7°C
16/03/19 09:20 EGFF 160920Z AUTO 25023G33KT 9999 BKN022 BKN027 OVC038 10/07 Q1003 WSW (250°) 26.5mph 38.0mph 10°C 7°C
16/03/19 08:20 EGFF 160820Z AUTO 25020G30KT 9999 BKN020 OVC025 10/08 Q1004 WSW (250°) 23.0mph 34.5mph 10°C 8°C
16/03/19 07:50 EGFF 160750Z AUTO 25021G31KT 9999 BKN020 OVC027 10/07 Q1004 WSW (250°) 24.2mph 35.7mph 10°C 7°C
16/03/19 07:20 EGFF 160720Z AUTO 25020G30KT 9999 BKN021 OVC026 10/07 Q1004 WSW (250°) 23.0mph 34.5mph 10°C 7°C
16/03/19 06:50 EGFF 160650Z AUTO 25021G33KT 9999 OVC020 10/08 Q1004 WSW (250°) 24.2mph 38.0mph 10°C 8°C
16/03/19 06:20 EGFF 160620Z AUTO 25020G31KT 9999 BKN018 OVC028 10/08 Q1005 WSW (250°) 23.0mph 35.7mph 10°C 8°C
16/03/19 05:50 EGFF 160550Z AUTO 25019G31KT 9999 BKN017 OVC024 10/08 Q1005 WSW (250°) 21.9mph 35.7mph 10°C 8°C
16/03/19 05:20 EGFF 160520Z AUTO 25020G31KT 9999 BKN016 OVC023 10/08 Q1005 WSW (250°) 23.0mph 35.7mph 10°C 8°C
16/03/19 04:50 EGFF 160450Z AUTO 25018KT 9999 OVC012 10/09 Q1006 WSW (250°) 20.7mph 10°C 9°C
16/03/19 04:20 EGFF 160420Z AUTO 25018KT 9999 BKN012 OVC017 10/08 Q1006 WSW (250°) 20.7mph 10°C 8°C
16/03/19 03:50 EGFF 160350Z AUTO 26019G30KT 9999 OVC011 10/08 Q1006 W (260°) 21.9mph 34.5mph 10°C 8°C
16/03/19 03:20 EGFF 160320Z AUTO 25020G30KT 9999 OVC011 10/09 Q1007 WSW (250°) 23.0mph 34.5mph 10°C 9°C
16/03/19 02:50 EGFF 160250Z AUTO 25019KT 9999 OVC009 10/09 Q1007 WSW (250°) 21.9mph 10°C 9°C
16/03/19 02:20 EGFF 160220Z AUTO 25018G28KT 9999 OVC009 10/09 Q1007 WSW (250°) 20.7mph 32.2mph 10°C 9°C
16/03/19 01:50 EGFF 160150Z AUTO 25019G29KT 9999 OVC010 10/09 Q1008 WSW (250°) 21.9mph 33.4mph 10°C 9°C
16/03/19 01:20 EGFF 160120Z AUTO 25015KT 9999 OVC009 10/09 Q1008 WSW (250°) 17.3mph 10°C 9°C
16/03/19 00:50 EGFF 160050Z 25019KT 9999 -RA OVC008 10/09 Q1008 RERA -RA WSW (250°) 21.9mph 10°C 9°C
16/03/19 00:20 EGFF 160020Z AUTO 25020G32KT 9999 OVC009 10/09 Q1009 WSW (250°) 23.0mph 36.8mph 10°C 9°C
15/03/19 23:50 EGFF 152350Z AUTO 25020KT 9999 OVC009 10/09 Q1009 WSW (250°) 23.0mph 10°C 9°C
15/03/19 23:20 EGFF 152320Z AUTO 25021KT 9999 OVC008 10/09 Q1009 WSW (250°) 24.2mph 10°C 9°C
15/03/19 22:50 EGFF 152250Z AUTO 25021KT 9999 OVC009 10/09 Q1010 WSW (250°) 24.2mph 10°C 9°C
15/03/19 22:20 EGFF 152220Z AUTO 26019G31KT 9999 OVC006 10/09 Q1010 W (260°) 21.9mph 35.7mph 10°C 9°C
15/03/19 21:50 EGFF 152150Z AUTO 26019KT 8000 OVC005 10/10 Q1010 W (260°) 21.9mph 10°C 10°C